Time;durP1;ratioP1;P1;durP2;ratioP2;P2;SDS_P1;SDS_P2;PMS_P1;PMS_P2;Temp;Humidity;BMP_temperature;BMP_pressure;BME280_temperature;BME280_humidity;BME280_pressure;Samples;Min_cycle;Max_cycle;Signal;HPM_P1;HPM_P2
2022/06/13 00:00:53;;;;;;;2.55;1.75;;;21.10;57.20;;;;;;5087514;28;20135;-72
2022/06/13 00:03:20;;;;;;;3.90;1.92;;;22.10;61.60;;;;;;5108222;28;20509;-72
2022/06/13 00:05:47;;;;;;;2.95;1.90;;;21.30;60.00;;;;;;5108102;28;20053;-70
2022/06/13 00:08:15;;;;;;;3.75;1.90;;;21.10;57.30;;;;;;5106723;28;20058;-72
2022/06/13 00:10:42;;;;;;;3.80;2.22;;;21.10;57.20;;;;;;5098736;28;20058;-71
2022/06/13 00:13:09;;;;;;;5.10;1.98;;;21.00;60.30;;;;;;5087893;28;20056;-72
2022/06/13 00:15:36;;;;;;;3.50;1.70;;;21.00;60.10;;;;;;5087780;28;20052;-71
2022/06/13 00:18:02;;;;;;;4.70;2.00;;;21.10;60.80;;;;;;5098800;28;20134;-72
2022/06/13 00:20:29;;;;;;;3.83;1.90;;;21.10;57.40;;;;;;5108504;28;20166;-70
2022/06/13 00:22:56;;;;;;;2.75;1.88;;;21.00;60.70;;;;;;5107560;28;20139;-72
2022/06/13 00:25:25;;;;;;;2.33;1.70;;;21.10;60.80;;;;;;5107788;28;20054;-72
2022/06/13 00:27:51;;;;;;;2.72;1.80;;;20.90;60.40;;;;;;5097942;28;20040;-71
2022/06/13 00:30:18;;;;;;;2.85;1.80;;;21.00;57.30;;;;;;5087857;28;20052;-71
2022/06/13 00:32:45;;;;;;;3.35;2.13;;;21.20;60.90;;;;;;5087424;28;20135;-72
2022/06/13 00:35:11;;;;;;;2.97;1.95;;;21.20;60.40;;;;;;5087347;28;20062;-71
2022/06/13 00:37:38;;;;;;;2.45;1.75;;;20.90;57.30;;;;;;5094881;28;20108;-71
2022/06/13 00:40:06;;;;;;;3.47;1.60;;;20.90;61.10;;;;;;5107975;28;20405;-72
2022/06/13 00:42:35;;;;;;;4.22;1.98;;;20.80;60.30;;;;;;5111060;28;20047;-72
2022/06/13 00:45:15;;;;;;;3.25;2.08;;;21.00;60.60;;;;;;5128550;28;20605;-72
2022/06/13 00:47:43;;;;;;;3.03;2.10;;;21.00;57.30;;;;;;5112461;28;20155;-71
2022/06/13 00:50:12;;;;;;;3.92;2.00;;;21.00;57.40;;;;;;5107599;28;20057;-71
2022/06/13 00:52:43;;;;;;;5.38;2.30;;;21.00;57.40;;;;;;5107802;28;20051;-72
2022/06/13 00:55:10;;;;;;;2.60;1.80;;;21.10;60.00;;;;;;5107908;28;20498;-72
2022/06/13 00:57:38;;;;;;;4.07;1.85;;;21.00;57.50;;;;;;5107375;28;20157;-72
2022/06/13 01:00:08;;;;;;;3.40;1.95;;;20.30;60.80;;;;;;5107327;28;20047;-72
2022/06/13 01:02:35;;;;;;;3.78;1.83;;;20.80;61.20;;;;;;5106629;28;20557;-71
2022/06/13 01:05:02;;;;;;;3.25;1.90;;;20.90;57.40;;;;;;5107855;28;20541;-72
2022/06/13 01:07:29;;;;;;;4.07;2.00;;;21.50;57.80;;;;;;5106462;28;20136;-72
2022/06/13 01:12:41;;;;;;;2.28;1.52;;;21.40;60.70;;;;;;5109271;28;20055;-72
2022/06/13 01:15:15;;;;;;;3.55;1.73;;;20.90;57.50;;;;;;5111582;28;20087;-72
2022/06/13 01:17:51;;;;;;;3.40;1.80;;;20.70;60.40;;;;;;5097253;28;20048;-71
2022/06/13 01:20:24;;;;;;;;;;;20.90;57.50;;;;;;5091561;28;20101;-72
2022/06/13 01:23:05;;;;;;;3.55;1.83;;;20.90;57.30;;;;;;5090948;28;19920;-72
2022/06/13 01:25:53;;;;;;;2.35;1.50;;;20.80;57.60;;;;;;5090899;28;20064;-72
2022/06/13 01:28:53;;;;;;;3.25;1.90;;;20.80;57.60;;;;;;5109605;28;20296;-72
2022/06/13 01:31:22;;;;;;;2.60;1.77;;;20.80;57.40;;;;;;5111524;28;20052;-71
2022/06/13 01:33:56;;;;;;;4.40;1.75;;;20.80;57.60;;;;;;5110992;28;20641;-72
2022/06/13 01:36:30;;;;;;;2.35;1.75;;;20.80;57.60;;;;;;5108203;28;20123;-71
2022/06/13 01:39:14;;;;;;;3.03;1.80;;;20.80;57.60;;;;;;5090496;28;20062;-72
2022/06/13 01:41:44;;;;;;;3.55;1.88;;;20.30;61.60;;;;;;5090813;28;20052;-72
2022/06/13 01:44:13;;;;;;;4.72;2.10;;;20.80;57.60;;;;;;5107329;28;20062;-72
2022/06/13 01:46:43;;;;;;;3.80;1.80;;;20.70;57.60;;;;;;5110263;28;20512;-71
2022/06/13 01:49:18;;;;;;;3.30;1.88;;;20.70;57.60;;;;;;5110945;28;20055;-72
2022/06/13 01:51:48;;;;;;;4.28;2.00;;;20.70;60.70;;;;;;5110932;28;20047;-71
2022/06/13 01:54:21;;;;;;;3.13;1.67;;;20.60;60.60;;;;;;5110673;28;20048;-72
2022/06/13 01:56:53;;;;;;;3.08;1.73;;;20.70;57.60;;;;;;5110982;28;20722;-72
2022/06/13 01:59:22;;;;;;;3.83;1.90;;;20.70;57.60;;;;;;5110616;28;20126;-72
2022/06/13 02:01:51;;;;;;;3.17;1.50;;;20.70;57.70;;;;;;5110453;28;20058;-71
2022/06/13 02:04:20;;;;;;;1.77;1.60;;;20.70;61.50;;;;;;5110042;28;20127;-71
2022/06/13 02:06:49;;;;;;;2.47;1.70;;;20.80;61.00;;;;;;5109545;28;20418;-71
2022/06/13 02:09:17;;;;;;;2.95;1.73;;;20.80;60.70;;;;;;5110547;28;20051;-71
2022/06/13 02:11:47;;;;;;;3.15;1.88;;;19.90;60.30;;;;;;5110531;28;20052;-71
2022/06/13 02:14:15;;;;;;;3.63;1.90;;;20.80;60.90;;;;;;5110264;28;20136;-72
2022/06/13 02:16:45;;;;;;;2.35;1.67;;;21.20;60.80;;;;;;5105836;28;20079;-72
2022/06/13 02:19:15;;;;;;;2.30;1.60;;;20.70;57.70;;;;;;5089938;28;20051;-71
2022/06/13 02:21:45;;;;;;;4.30;1.98;;;20.50;60.60;;;;;;5090877;28;20131;-72
2022/06/13 02:24:19;;;;;;;3.80;1.88;;;19.60;60.90;;;;;;5088478;28;20127;-72
2022/06/13 02:26:47;;;;;;;3.72;1.88;;;20.60;57.00;;;;;;5093621;28;20068;-72
2022/06/13 02:29:16;;;;;;;4.88;2.30;;;20.60;60.50;;;;;;5111179;28;20044;-72
2022/06/13 02:31:45;;;;;;;3.58;1.80;;;20.60;57.70;;;;;;5110142;28;20047;-72
2022/06/13 02:34:14;;;;;;;4.45;1.80;;;20.90;57.90;;;;;;5110054;28;20055;-72
2022/06/13 02:36:44;;;;;;;3.63;2.03;;;20.60;57.70;;;;;;5110173;28;20478;-72
2022/06/13 02:39:13;;;;;;;2.78;1.90;;;20.50;61.20;;;;;;5109949;28;20143;-72
2022/06/13 02:41:44;;;;;;;3.20;2.10;;;20.40;60.70;;;;;;5110977;28;20043;-71
2022/06/13 02:44:13;;;;;;;2.55;1.88;;;19.70;62.00;;;;;;5109867;28;20058;-72
2022/06/13 02:46:42;;;;;;;3.55;1.80;;;20.50;57.70;;;;;;5109284;28;20115;-72
2022/06/13 02:49:13;;;;;;;2.85;1.58;;;20.50;57.80;;;;;;5110130;28;20605;-72
2022/06/13 02:51:43;;;;;;;3.42;1.95;;;20.50;57.70;;;;;;5109572;28;20134;-72
2022/06/13 02:54:11;;;;;;;2.75;1.70;;;20.60;61.80;;;;;;5109190;28;20052;-73
2022/06/13 02:57:23;;;;;;;3.88;2.00;;;20.50;57.80;;;;;;5109039;28;20044;-72
2022/06/13 02:59:34;;;;;;;2.22;1.63;;;20.50;61.70;;;;;;5109036;28;20055;-72
2022/06/13 03:02:00;;;;;;;2.53;1.63;;;20.50;57.80;;;;;;5109221;28;20083;-72
2022/06/13 03:04:33;;;;;;;2.65;1.75;;;20.80;61.40;;;;;;5109200;28;20401;-72
2022/06/13 03:07:03;;;;;;;3.25;2.05;;;20.70;61.50;;;;;;5108421;28;20052;-72
2022/06/13 03:09:32;;;;;;;4.28;1.92;;;20.20;60.70;;;;;;5109063;28;20074;-71
2022/06/13 03:12:02;;;;;;;3.67;2.10;;;20.60;61.30;;;;;;5109057;28;20043;-72
2022/06/13 03:14:37;;;;;;;3.83;1.80;;;20.50;57.80;;;;;;5109181;28;20047;-72
2022/06/13 03:17:06;;;;;;;3.55;1.75;;;20.40;60.90;;;;;;5103341;28;20075;-72
2022/06/13 03:19:37;;;;;;;2.45;1.60;;;20.40;57.80;;;;;;5088656;28;20075;-72
2022/06/13 03:22:06;;;;;;;3.28;1.77;;;20.40;61.30;;;;;;5089086;28;20085;-72
2022/06/13 03:24:38;;;;;;;3.72;1.70;;;21.40;61.90;;;;;;5089543;28;20044;-71
2022/06/13 03:27:07;;;;;;;4.55;2.10;;;20.40;57.80;;;;;;5094051;28;20048;-72
2022/06/13 03:29:35;;;;;;;2.50;1.73;;;20.50;61.20;;;;;;5103983;28;20554;-71
2022/06/13 03:32:06;;;;;;;2.42;1.75;;;20.50;61.80;;;;;;5088272;28;20062;-72
2022/06/13 03:34:34;;;;;;;2.53;1.65;;;20.40;57.80;;;;;;5088149;28;20151;-73
2022/06/13 03:37:04;;;;;;;2.97;1.77;;;20.40;60.90;;;;;;5090000;28;20115;-71
2022/06/13 03:39:32;;;;;;;2.80;1.80;;;20.40;57.90;;;;;;5088708;28;20139;-72
2022/06/13 03:42:02;;;;;;;4.03;2.03;;;20.40;57.90;;;;;;5088483;28;20430;-75
2022/06/13 03:44:30;;;;;;;2.85;1.80;;;20.30;61.70;;;;;;5107689;28;20055;-74
2022/06/13 03:46:59;;;;;;;2.92;1.90;;;20.40;57.90;;;;;;5107704;28;20051;-74
2022/06/13 03:49:27;;;;;;;4.72;1.90;;;20.30;57.80;;;;;;5108912;28;20559;-74
2022/06/13 03:51:54;;;;;;;4.03;1.92;;;20.30;57.90;;;;;;5101045;28;20621;-74
2022/06/13 03:54:25;;;;;;;2.97;1.75;;;20.40;58.00;;;;;;5097156;28;20048;-74
2022/06/13 03:56:58;;;;;;;4.28;1.95;;;20.40;57.90;;;;;;5096445;28;20047;-74
2022/06/13 03:59:27;;;;;;;3.17;1.70;;;20.30;58.00;;;;;;5097667;28;20641;-74
2022/06/13 04:01:56;;;;;;;2.88;1.85;;;20.30;57.90;;;;;;5095645;28;20090;-74
2022/06/13 04:04:24;;;;;;;2.75;1.90;;;20.40;61.20;;;;;;5097573;28;20189;-74
2022/06/13 04:06:51;;;;;;;4.57;1.80;;;20.30;58.00;;;;;;5095882;28;20090;-74
2022/06/13 04:09:19;;;;;;;3.53;1.80;;;20.30;58.00;;;;;;5097204;28;20129;-74
2022/06/13 04:12:07;;;;;;;3.88;1.80;;;20.30;61.90;;;;;;5092037;27;20131;-74
2022/06/13 04:14:55;;;;;;;2.75;1.80;;;20.30;57.80;;;;;;5094522;28;20060;-74
2022/06/13 04:17:25;;;;;;;3.13;1.77;;;20.80;58.20;;;;;;5087048;28;20044;-74
2022/06/13 04:19:55;;;;;;;4.10;2.13;;;20.30;58.00;;;;;;5095122;28;20058;-74
2022/06/13 04:22:23;;;;;;;2.42;1.60;;;20.00;61.30;;;;;;5092941;28;20067;-74
2022/06/13 04:24:56;;;;;;;3.25;1.80;;;20.30;61.00;;;;;;5095675;28;20130;-75
2022/06/13 04:27:25;;;;;;;2.60;1.85;;;20.30;62.00;;;;;;5093814;28;20044;-75
2022/06/13 04:29:55;;;;;;;4.07;1.98;;;18.70;57.10;;;;;;5097405;28;20126;-75
2022/06/13 04:32:24;;;;;;;4.00;2.10;;;20.30;58.00;;;;;;5098711;28;20094;-75
2022/06/13 04:34:52;;;;;;;2.25;1.80;;;20.30;62.40;;;;;;5102795;28;20052;-70
2022/06/13 04:37:20;;;;;;;3.60;1.90;;;20.10;61.30;;;;;;5101505;28;20044;-72
2022/06/13 04:39:47;;;;;;;2.53;1.85;;;20.30;58.00;;;;;;5087530;28;20056;-71
2022/06/13 04:42:14;;;;;;;2.95;1.70;;;20.30;62.00;;;;;;5088653;28;20151;-71
2022/06/13 04:44:42;;;;;;;2.38;1.50;;;20.30;57.90;;;;;;5092039;28;20080;-71
2022/06/13 04:47:09;;;;;;;3.30;1.75;;;20.30;62.20;;;;;;5095300;28;20142;-72
2022/06/13 04:49:40;;;;;;;2.08;1.83;;;20.90;62.40;;;;;;5112321;28;20062;-72
2022/06/13 04:52:08;;;;;;;2.88;1.60;;;20.30;61.60;;;;;;5112710;28;20496;-72
2022/06/13 04:54:39;;;;;;;2.33;1.60;;;20.20;61.60;;;;;;5111764;28;20062;-71
2022/06/13 04:57:06;;;;;;;3.25;1.92;;;19.40;61.10;;;;;;5107861;28;20512;-72
2022/06/13 04:59:32;;;;;;;2.60;1.52;;;20.40;61.00;;;;;;5091869;28;20056;-72
2022/06/13 05:02:01;;;;;;;2.47;1.63;;;20.30;57.80;;;;;;5090794;28;20048;-72
2022/06/13 05:04:30;;;;;;;2.97;1.95;;;20.40;61.10;;;;;;5091679;28;20058;-72
2022/06/13 05:06:58;;;;;;;3.83;1.80;;;20.30;61.40;;;;;;5094546;28;20100;-71
2022/06/13 05:09:28;;;;;;;3.80;1.77;;;20.20;62.00;;;;;;5112099;28;20145;-72
2022/06/13 05:11:56;;;;;;;2.78;1.77;;;20.20;61.50;;;;;;5111937;28;20071;-71
2022/06/13 05:14:25;;;;;;;2.20;1.83;;;20.30;57.80;;;;;;5111771;28;20075;-72
2022/06/13 05:17:02;;;;;;;3.15;1.90;;;20.40;61.60;;;;;;5109967;28;20052;-72
2022/06/13 05:19:41;;;;;;;2.65;1.80;;;20.40;57.80;;;;;;5090800;28;20056;-72
2022/06/13 05:22:16;;;;;;;2.47;1.75;;;20.40;57.70;;;;;;5091165;28;20136;-72
2022/06/13 05:25:08;;;;;;;2.30;1.55;;;20.30;61.80;;;;;;5090764;28;20087;-71
2022/06/13 05:27:34;;;;;;;2.47;1.73;;;20.30;57.70;;;;;;5087524;28;20110;-71
2022/06/13 05:30:01;;;;;;;2.92;1.60;;;20.10;60.90;;;;;;5112436;28;20043;-71
2022/06/13 05:32:29;;;;;;;2.83;1.70;;;20.30;57.80;;;;;;5111246;28;20047;-72
2022/06/13 05:34:56;;;;;;;4.50;1.77;;;20.40;57.70;;;;;;5112073;28;20408;-72
2022/06/13 05:37:26;;;;;;;2.13;1.52;;;20.40;62.30;;;;;;5105253;28;20118;-71
2022/06/13 05:39:53;;;;;;;2.35;1.60;;;20.60;62.00;;;;;;5099866;28;20142;-72
2022/06/13 05:42:19;;;;;;;2.40;1.70;;;20.60;62.10;;;;;;5112273;27;20050;-71
2022/06/13 05:44:46;;;;;;;3.70;1.60;;;20.60;58.00;;;;;;5113996;27;20425;-73
2022/06/13 05:47:16;;;;;;;1.88;1.35;;;20.80;58.00;;;;;;5126685;27;20039;-71
2022/06/13 05:49:44;;;;;;;2.13;1.67;;;19.90;60.80;;;;;;5111095;28;20051;-71
2022/06/13 05:52:11;;;;;;;2.20;1.60;;;21.10;61.60;;;;;;5111029;28;20127;-71
2022/06/13 05:54:38;;;;;;;2.85;1.38;;;21.10;57.30;;;;;;5111666;28;20047;-71
2022/06/13 05:57:05;;;;;;;2.42;1.60;;;21.20;57.10;;;;;;5108626;28;20050;-71
2022/06/13 05:59:32;;;;;;;2.00;1.38;;;21.30;56.90;;;;;;5090101;28;20441;-71
2022/06/13 06:01:58;;;;;;;3.03;1.65;;;21.40;56.80;;;;;;5099387;28;20051;-72
2022/06/13 06:04:25;;;;;;;2.15;1.65;;;21.40;56.50;;;;;;5110221;28;20059;-72
2022/06/13 06:06:53;;;;;;;2.92;1.80;;;21.50;56.50;;;;;;5109837;28;20126;-72
2022/06/13 06:09:20;;;;;;;2.40;1.45;;;21.50;60.30;;;;;;5090436;28;20091;-72
2022/06/13 06:11:46;;;;;;;3.15;1.70;;;21.50;60.90;;;;;;5090378;28;20066;-72
2022/06/13 06:14:16;;;;;;;2.83;1.65;;;22.60;60.50;;;;;;5091050;28;20056;-72
2022/06/13 06:16:43;;;;;;;2.72;1.70;;;21.70;61.00;;;;;;5090233;28;20056;-71
2022/06/13 06:19:11;;;;;;;2.75;1.40;;;22.80;61.00;;;;;;5109918;28;20047;-72
2022/06/13 06:21:37;;;;;;;2.60;1.50;;;21.40;60.20;;;;;;5110156;28;20507;-71
2022/06/13 06:24:06;;;;;;;2.45;1.40;;;21.30;60.70;;;;;;5110058;28;20104;-71
2022/06/13 06:26:33;;;;;;;2.17;1.50;;;21.50;56.30;;;;;;5109941;28;20144;-71
2022/06/13 06:29:00;;;;;;;2.30;1.75;;;21.40;56.20;;;;;;5092359;28;20044;-71
2022/06/13 06:31:27;;;;;;;2.53;1.70;;;21.40;56.20;;;;;;5089796;28;20099;-71
2022/06/13 06:33:53;;;;;;;2.08;1.38;;;20.40;59.60;;;;;;5089127;28;20060;-71
2022/06/13 06:36:20;;;;;;;2.05;1.50;;;21.40;60.60;;;;;;5101334;28;20048;-71
2022/06/13 06:38:47;;;;;;;1.95;1.45;;;21.40;59.80;;;;;;5110742;28;20134;-71
2022/06/13 06:41:16;;;;;;;1.33;1.23;;;19.50;55.00;;;;;;5111032;28;20044;-72
2022/06/13 06:43:43;;;;;;;2.75;1.55;;;21.30;59.70;;;;;;5123668;27;20400;-72
2022/06/13 06:46:09;;;;;;;2.78;1.40;;;21.70;57.80;;;;;;5116743;27;20130;-71
2022/06/13 06:48:37;;;;;;;1.77;1.30;;;22.00;55.80;;;;;;5097034;28;20462;-71
2022/06/13 06:51:06;;;;;;;1.70;1.40;;;22.20;59.70;;;;;;5103685;28;20054;-72
2022/06/13 06:59:53;;;;;;;2.22;1.30;;;22.60;59.10;;;;;;5109201;28;20621;-72
2022/06/13 07:01:51;;;;;;;1.52;1.30;;;22.00;58.10;;;;;;5096747;28;20043;-71
2022/06/13 07:04:17;;;;;;;1.95;1.30;;;22.60;58.20;;;;;;5107356;28;20046;-71
2022/06/13 07:06:44;;;;;;;2.13;1.30;;;23.20;58.70;;;;;;5109688;28;20051;-72
2022/06/13 07:09:12;;;;;;;2.58;1.30;;;22.90;54.40;;;;;;5097499;28;20402;-71
2022/06/13 07:11:55;;;;;;;3.10;1.33;;;23.00;54.30;;;;;;5094603;28;20135;-72
2022/06/13 07:14:22;;;;;;;4.45;1.30;;;23.00;58.00;;;;;;5098545;28;20075;-71
2022/06/13 07:16:49;;;;;;;1.63;1.30;;;23.20;54.20;;;;;;5097907;28;20094;-71
2022/06/13 07:19:16;;;;;;;2.08;1.23;;;23.20;54.10;;;;;;5092881;28;20131;-71
2022/06/13 07:29:37;;;;;;;1.90;1.20;;;23.10;58.00;;;;;;5102871;28;20099;-71
2022/06/13 07:32:06;;;;;;;2.55;1.58;;;23.30;54.10;;;;;;5110013;28;20050;-72
2022/06/13 07:34:34;;;;;;;3.05;1.73;;;23.30;54.00;;;;;;5108841;28;20466;-72
2022/06/13 07:37:02;;;;;;;2.80;1.70;;;23.30;57.70;;;;;;5099518;27;20068;-71
2022/06/13 07:39:28;;;;;;;1.63;1.40;;;23.30;54.00;;;;;;5103545;28;20089;-71
2022/06/13 07:41:57;;;;;;;4.15;1.60;;;23.20;54.00;;;;;;5108960;28;20529;-71
2022/06/13 07:44:26;;;;;;;2.67;1.50;;;23.20;54.00;;;;;;5108488;28;20135;-71
2022/06/13 07:46:54;;;;;;;2.80;1.40;;;23.10;57.70;;;;;;5106845;28;20052;-71
2022/06/13 07:49:21;;;;;;;3.63;1.58;;;22.90;58.00;;;;;;5093387;28;20048;-71
2022/06/13 07:51:48;;;;;;;4.30;1.75;;;23.10;54.00;;;;;;5087771;28;20076;-71
2022/06/13 07:54:14;;;;;;;2.47;1.52;;;23.20;54.60;;;;;;5089568;28;20384;-71
2022/06/13 07:56:41;;;;;;;2.67;1.40;;;22.00;57.10;;;;;;5089462;28;20052;-71
2022/06/13 07:59:08;;;;;;;4.07;1.73;;;23.10;57.50;;;;;;5090208;28;20056;-71
2022/06/13 08:01:36;;;;;;;3.33;1.52;;;23.00;53.90;;;;;;5096078;28;20043;-71
2022/06/13 08:04:04;;;;;;;4.80;1.60;;;23.00;53.60;;;;;;5109619;28;20163;-72
2022/06/13 08:06:31;;;;;;;3.88;1.88;;;22.90;53.40;;;;;;5109132;28;20448;-71
2022/06/13 08:08:58;;;;;;;4.05;1.40;;;23.10;57.60;;;;;;5105990;28;20081;-71
2022/06/13 08:11:29;;;;;;;3.15;1.40;;;22.80;53.60;;;;;;5088426;28;20052;-72
2022/06/13 08:13:55;;;;;;;4.45;1.42;;;22.70;53.70;;;;;;5089065;28;20048;-73
2022/06/13 08:16:22;;;;;;;6.60;1.65;;;22.60;53.90;;;;;;5095954;28;20047;-72
2022/06/13 08:18:49;;;;;;;3.05;1.63;;;21.80;57.30;;;;;;5098373;28;20043;-72
2022/06/13 08:21:17;;;;;;;2.60;1.35;;;22.60;57.70;;;;;;5097956;28;20047;-72
2022/06/13 08:23:44;;;;;;;3.28;1.52;;;22.40;57.20;;;;;;5099197;28;20058;-72
2022/06/13 08:26:11;;;;;;;2.97;1.60;;;22.10;56.40;;;;;;5106973;28;20075;-72
2022/06/13 08:28:37;;;;;;;3.05;1.30;;;22.40;54.30;;;;;;5107866;28;20043;-72
2022/06/13 08:31:06;;;;;;;3.42;1.45;;;22.20;57.40;;;;;;5105986;28;20040;-72
2022/06/13 08:33:33;;;;;;;4.55;1.30;;;23.20;55.00;;;;;;5094841;28;20054;-73
2022/06/13 08:36:00;;;;;;;3.97;1.33;;;22.50;56.70;;;;;;5100567;28;20517;-71
2022/06/13 08:38:28;;;;;;;2.22;1.45;;;21.60;58.10;;;;;;5087759;28;20048;-72
2022/06/13 08:40:57;;;;;;;2.70;1.30;;;22.60;58.10;;;;;;5099074;28;20114;-71
2022/06/13 08:43:44;;;;;;;2.42;1.30;;;22.70;54.60;;;;;;5097840;28;20043;-72
2022/06/13 08:46:15;;;;;;;1.88;1.30;;;22.70;56.60;;;;;;5110190;28;20132;-72
2022/06/13 08:48:44;;;;;;;4.15;1.35;;;22.70;58.50;;;;;;5093042;28;20139;-74
2022/06/13 08:51:12;;;;;;;2.33;1.20;;;22.90;58.10;;;;;;5099594;28;20052;-73
2022/06/13 08:53:45;;;;;;;1.95;1.40;;;22.80;54.50;;;;;;5105747;28;20058;-72
2022/06/13 08:56:13;;;;;;;2.88;1.23;;;23.00;56.40;;;;;;5106933;28;20066;-73
2022/06/13 08:58:43;;;;;;;2.90;1.42;;;22.80;54.40;;;;;;5107235;28;20131;-72
2022/06/13 09:01:11;;;;;;;1.83;1.20;;;22.90;54.50;;;;;;5095784;28;20051;-72
2022/06/13 09:03:40;;;;;;;2.05;1.20;;;22.80;54.40;;;;;;5106097;28;20051;-71
2022/06/13 09:06:11;;;;;;;20.83;1.70;;;22.80;56.70;;;;;;5108675;28;20047;-71
2022/06/13 09:08:41;;;;;;;3.58;1.50;;;22.70;54.40;;;;;;5108893;28;20169;-71
2022/06/13 09:11:11;;;;;;;7.00;1.83;;;22.70;58.00;;;;;;5100957;28;20044;-72
2022/06/13 09:13:40;;;;;;;5.22;1.80;;;22.70;54.10;;;;;;5094587;28;20062;-72
2022/06/13 09:16:09;;;;;;;6.88;1.60;;;23.00;56.30;;;;;;5104894;28;20482;-72
2022/06/13 09:18:39;;;;;;;3.75;1.90;;;22.60;54.20;;;;;;5107602;28;20529;-72
2022/06/13 09:21:11;;;;;;;7.00;2.00;;;22.60;54.30;;;;;;5107763;28;20464;-72
2022/06/13 09:23:42;;;;;;;5.72;1.92;;;22.60;54.40;;;;;;5090432;28;20071;-72
2022/06/13 09:26:12;;;;;;;8.40;1.88;;;22.90;56.90;;;;;;5104956;28;20051;-71
2022/06/13 09:28:44;;;;;;;5.75;1.80;;;22.70;54.40;;;;;;5106644;28;20048;-71
2022/06/13 09:31:13;;;;;;;7.80;1.75;;;22.70;54.40;;;;;;5107616;28;20247;-71
2022/06/13 09:33:44;;;;;;;4.07;1.50;;;23.00;54.60;;;;;;5112326;28;20051;-71
2022/06/13 09:36:14;;;;;;;7.07;2.20;;;22.80;56.70;;;;;;5112268;28;20047;-71
2022/06/13 09:38:44;;;;;;;5.20;1.73;;;22.50;58.50;;;;;;5110728;28;20273;-71
2022/06/13 09:41:19;;;;;;;4.78;1.63;;;22.80;54.40;;;;;;5112390;28;20048;-71
2022/06/13 09:43:53;;;;;;;4.63;1.60;;;22.60;57.60;;;;;;5110244;28;20062;-72
2022/06/13 09:46:25;;;;;;;4.15;1.70;;;22.80;54.30;;;;;;5111427;28;20058;-72
2022/06/13 09:49:10;;;;;;;4.13;2.00;;;22.90;58.30;;;;;;5110968;28;20486;-72
2022/06/13 09:51:42;;;;;;;5.22;1.70;;;22.80;54.40;;;;;;5110954;28;20063;-72
2022/06/13 09:54:15;;;;;;;5.40;1.42;;;22.30;58.00;;;;;;5110865;28;20062;-72
2022/06/13 09:56:44;;;;;;;4.30;1.50;;;22.70;54.40;;;;;;5110736;28;20055;-72
2022/06/13 09:59:18;;;;;;;6.47;1.63;;;22.70;54.40;;;;;;5105498;28;20048;-73
2022/06/13 10:01:47;;;;;;;3.70;1.42;;;22.80;58.30;;;;;;5098621;28;20050;-71
2022/06/13 10:04:17;;;;;;;4.00;1.35;;;22.70;54.40;;;;;;5097418;28;20093;-72
2022/06/13 10:06:46;;;;;;;4.32;1.52;;;20.40;56.90;;;;;;5103127;28;20047;-71
2022/06/13 10:09:23;;;;;;;4.82;1.67;;;19.50;55.60;;;;;;5100598;28;20044;-71
2022/06/13 10:11:52;;;;;;;4.25;1.58;;;22.80;54.40;;;;;;5100818;28;20039;-72
2022/06/13 10:14:36;;;;;;;2.63;1.20;;;22.70;58.40;;;;;;5100484;28;20668;-71
2022/06/13 10:17:11;;;;;;;3.13;1.38;;;22.80;54.50;;;;;;5097236;27;20569;-71
2022/06/13 10:19:41;;;;;;;3.35;1.33;;;22.80;54.60;;;;;;5094182;28;20051;-72
2022/06/13 10:22:11;;;;;;;2.95;1.15;;;23.90;59.20;;;;;;5107417;28;20075;-72
2022/06/13 10:24:44;;;;;;;3.10;1.20;;;22.70;57.80;;;;;;5110366;28;20073;-71
2022/06/13 10:27:15;;;;;;;4.88;1.83;;;22.80;54.60;;;;;;5109246;28;20047;-71
2022/06/13 10:29:55;;;;;;;3.45;1.35;;;23.10;57.60;;;;;;5111498;28;20050;-71
2022/06/13 10:32:32;;;;;;;2.75;1.40;;;22.80;54.40;;;;;;5110231;28;20055;-71
2022/06/13 10:35:08;;;;;;;4.28;1.48;;;22.70;58.00;;;;;;5110344;28;20051;-71
2022/06/13 10:37:40;;;;;;;2.97;1.20;;;22.80;54.50;;;;;;5106383;28;20075;-71
2022/06/13 10:40:08;;;;;;;2.35;1.30;;;22.80;58.60;;;;;;5089896;28;20696;-71
2022/06/13 10:42:35;;;;;;;2.45;1.05;;;22.80;54.60;;;;;;5100222;27;20126;-71
2022/06/13 10:45:04;;;;;;;2.15;1.30;;;23.30;58.00;;;;;;5129542;27;20055;-71
2022/06/13 10:47:33;;;;;;;3.00;1.38;;;22.60;57.70;;;;;;5130425;27;20057;-71
2022/06/13 10:50:01;;;;;;;2.45;1.20;;;22.80;54.60;;;;;;5130037;27;20043;-72
2022/06/13 10:52:31;;;;;;;2.25;1.20;;;22.70;57.70;;;;;;5126817;27;20130;-73
2022/06/13 10:55:00;;;;;;;2.00;1.25;;;22.80;58.50;;;;;;5097874;28;20059;-70
2022/06/13 10:57:31;;;;;;;3.78;1.30;;;22.80;54.60;;;;;;5105428;28;20036;-71
2022/06/13 11:00:13;;;;;;;3.55;1.30;;;22.80;54.60;;;;;;5109757;28;20100;-71
2022/06/13 11:02:40;;;;;;;2.88;1.20;;;22.80;54.60;;;;;;5109050;28;20047;-70
2022/06/13 11:05:08;;;;;;;4.28;1.40;;;22.60;59.00;;;;;;5109204;28;20476;-70
2022/06/13 11:07:36;;;;;;;3.85;1.20;;;22.70;54.70;;;;;;5109294;28;20079;-70
2022/06/13 11:10:03;;;;;;;2.08;1.27;;;23.80;58.60;;;;;;5109362;28;20112;-70
2022/06/13 11:12:33;;;;;;;4.25;1.20;;;22.60;58.20;;;;;;5108646;28;20052;-70
2022/06/13 11:23:15;;;;;;;4.23;1.30;;;22.10;57.70;;;;;;5102130;28;20055;-70
2022/06/13 11:25:42;;;;;;;4.63;1.25;;;22.50;54.90;;;;;;5100492;28;20048;-70
2022/06/13 11:28:13;;;;;;;4.07;1.30;;;22.30;58.30;;;;;;5089753;28;20051;-70
2022/06/13 11:30:47;;;;;;;2.63;1.10;;;22.50;58.80;;;;;;5089229;28;20047;-71
2022/06/13 11:33:25;;;;;;;2.22;1.23;;;22.50;57.90;;;;;;5089704;28;20071;-71
2022/06/13 11:35:54;;;;;;;2.65;1.13;;;22.50;54.90;;;;;;5103753;28;20438;-70
2022/06/13 11:38:22;;;;;;;3.45;1.30;;;23.40;58.90;;;;;;5109835;28;20418;-71
2022/06/13 11:40:57;;;;;;;3.17;1.20;;;22.50;54.90;;;;;;5109105;28;20146;-71
2022/06/13 11:43:32;;;;;;;2.47;1.13;;;22.50;58.70;;;;;;5102223;28;20055;-71
2022/06/13 11:46:01;;;;;;;2.92;1.35;;;21.70;56.20;;;;;;5105077;28;20047;-71
2022/06/13 11:48:28;;;;;;;2.75;1.20;;;22.60;57.80;;;;;;5109292;28;20054;-71
2022/06/13 11:50:55;;;;;;;2.35;1.05;;;22.80;58.90;;;;;;5101247;28;20048;-70
2022/06/13 11:53:37;;;;;;;3.95;1.00;;;23.30;59.40;;;;;;5096550;28;20065;-70
2022/06/13 11:56:07;;;;;;;1.85;0.90;;;22.50;56.50;;;;;;5095426;28;20080;-70
2022/06/13 11:58:37;;;;;;;4.47;1.58;;;22.50;59.10;;;;;;5095425;28;20105;-71
2022/06/13 12:01:22;;;;;;;1.83;1.00;;;21.80;58.20;;;;;;5098928;28;20047;-71
2022/06/13 12:03:57;;;;;;;4.13;1.08;;;22.50;58.90;;;;;;5093621;28;20062;-71
2022/06/13 12:06:24;;;;;;;3.40;1.15;;;22.90;58.50;;;;;;5097490;28;20051;-71
2022/06/13 12:08:51;;;;;;;4.75;1.50;;;22.40;58.30;;;;;;5095886;28;20048;-70
2022/06/13 12:11:23;;;;;;;2.88;1.27;;;23.80;55.80;;;;;;5094509;28;20060;-70
2022/06/13 12:13:52;;;;;;;4.28;1.10;;;22.40;55.00;;;;;;5094557;28;20619;-70
2022/06/13 12:16:27;;;;;;;3.72;1.23;;;21.80;54.60;;;;;;5095825;28;20089;-71
2022/06/13 12:18:59;;;;;;;4.75;1.35;;;22.30;54.70;;;;;;5087307;28;20055;-71
2022/06/13 12:21:28;;;;;;;2.85;1.38;;;22.30;58.10;;;;;;5093464;28;20039;-70
2022/06/13 12:23:59;;;;;;;3.25;1.40;;;22.30;54.70;;;;;;5099925;28;20589;-70
2022/06/13 12:26:28;;;;;;;4.95;1.30;;;22.30;54.80;;;;;;5087490;28;20080;-71
2022/06/13 12:29:01;;;;;;;10.05;1.60;;;22.30;59.20;;;;;;5090168;28;20079;-71
2022/06/13 12:31:33;;;;;;;3.45;1.00;;;22.30;54.90;;;;;;5102230;28;20056;-71
2022/06/13 12:34:15;;;;;;;5.35;1.20;;;22.30;54.80;;;;;;5087618;28;20098;-71
2022/06/13 12:37:00;;;;;;;3.88;1.20;;;22.40;54.70;;;;;;5087026;28;20048;-71
2022/06/13 12:39:46;;;;;;;5.32;1.00;;;22.30;54.80;;;;;;5088218;28;20040;-70
2022/06/13 12:42:20;;;;;;;4.60;1.30;;;22.30;58.60;;;;;;5089009;28;20055;-70
2022/06/13 12:45:03;;;;;;;3.70;1.15;;;22.40;58.30;;;;;;5128292;28;20051;-70
2022/06/13 12:47:39;;;;;;;2.63;1.08;;;22.30;55.00;;;;;;5130038;27;20094;-70
2022/06/13 12:50:19;;;;;;;2.97;1.20;;;22.20;58.90;;;;;;5128094;28;20051;-70
2022/06/13 12:52:53;;;;;;;3.00;1.25;;;22.30;55.10;;;;;;5128218;28;20078;-69
2022/06/13 12:55:33;;;;;;;2.92;1.20;;;22.50;58.30;;;;;;5113548;28;20055;-68
2022/06/13 12:58:08;;;;;;;4.57;1.20;;;22.30;57.90;;;;;;5088238;28;20058;-70
2022/06/13 13:00:39;;;;;;;2.72;1.40;;;22.30;55.10;;;;;;5087972;28;20058;-70
2022/06/13 13:03:21;;;;;;;1.98;1.20;;;22.30;55.20;;;;;;5106768;28;20051;-70
2022/06/13 13:05:53;;;;;;;3.33;1.17;;;22.10;58.80;;;;;;5109573;28;20130;-71
2022/06/13 13:08:27;;;;;;;3.95;1.30;;;22.70;58.30;;;;;;5112814;28;20055;-70
2022/06/13 13:11:04;;;;;;;2.50;1.27;;;22.20;59.50;;;;;;5109575;28;20139;-70
2022/06/13 13:13:43;;;;;;;2.78;1.30;;;22.20;58.00;;;;;;5090828;28;20048;-70
2022/06/13 13:16:14;;;;;;;4.65;0.93;;;22.50;56.90;;;;;;5091316;28;20139;-70
2022/06/13 13:18:47;;;;;;;2.92;1.20;;;22.00;57.70;;;;;;5092049;28;20056;-70
2022/06/13 13:21:18;;;;;;;3.20;1.08;;;22.30;55.20;;;;;;5106983;28;20054;-70
2022/06/13 13:23:48;;;;;;;1.95;1.00;;;22.50;58.90;;;;;;5111249;28;20063;-70
2022/06/13 13:26:26;;;;;;;1.42;0.90;;;23.10;57.50;;;;;;5109058;27;20130;-70
2022/06/13 13:28:56;;;;;;;2.03;1.00;;;22.50;59.20;;;;;;5108308;28;20139;-71